sensor_id;sensor_type;location;lat;lon;timestamp;P1;durP1;ratioP1;P2;durP2;ratioP2
12788;SDS011;6458;42.710;23.192;2023-10-19T00:00:02;33.73;;;25.97;;
12788;SDS011;6458;42.710;23.192;2023-10-19T00:02:45;34.33;;;23.43;;
12788;SDS011;6458;42.710;23.192;2023-10-19T00:05:11;31.13;;;23.63;;
12788;SDS011;6458;42.710;23.192;2023-10-19T00:07:41;30.53;;;24.13;;
12788;SDS011;6458;42.710;23.192;2023-10-19T00:10:08;30.03;;;23.30;;
12788;SDS011;6458;42.710;23.192;2023-10-19T00:12:34;31.97;;;23.33;;
12788;SDS011;6458;42.710;23.192;2023-10-19T00:15:01;31.47;;;21.87;;
12788;SDS011;6458;42.710;23.192;2023-10-19T00:17:29;27.27;;;21.17;;
12788;SDS011;6458;42.710;23.192;2023-10-19T00:19:57;27.93;;;22.03;;
12788;SDS011;6458;42.710;23.192;2023-10-19T00:22:31;23.63;;;20.30;;
12788;SDS011;6458;42.710;23.192;2023-10-19T00:25:03;26.43;;;20.30;;
12788;SDS011;6458;42.710;23.192;2023-10-19T00:27:29;25.73;;;21.07;;
12788;SDS011;6458;42.710;23.192;2023-10-19T00:29:58;27.00;;;21.33;;
12788;SDS011;6458;42.710;23.192;2023-10-19T00:32:31;30.33;;;21.50;;
12788;SDS011;6458;42.710;23.192;2023-10-19T00:34:59;25.17;;;21.93;;
12788;SDS011;6458;42.710;23.192;2023-10-19T00:37:33;25.43;;;21.03;;
12788;SDS011;6458;42.710;23.192;2023-10-19T00:40:11;26.17;;;20.93;;
12788;SDS011;6458;42.710;23.192;2023-10-19T00:42:44;24.37;;;20.97;;
12788;SDS011;6458;42.710;23.192;2023-10-19T00:45:18;27.23;;;19.97;;
12788;SDS011;6458;42.710;23.192;2023-10-19T00:47:50;26.60;;;21.80;;
12788;SDS011;6458;42.710;23.192;2023-10-19T00:50:18;29.27;;;22.50;;
12788;SDS011;6458;42.710;23.192;2023-10-19T00:52:47;27.13;;;20.93;;
12788;SDS011;6458;42.710;23.192;2023-10-19T00:55:17;23.63;;;16.03;;
12788;SDS011;6458;42.710;23.192;2023-10-19T00:57:51;20.87;;;15.00;;
12788;SDS011;6458;42.710;23.192;2023-10-19T01:00:19;19.77;;;14.37;;
12788;SDS011;6458;42.710;23.192;2023-10-19T01:02:56;17.27;;;14.23;;
12788;SDS011;6458;42.710;23.192;2023-10-19T01:05:25;17.70;;;14.10;;
12788;SDS011;6458;42.710;23.192;2023-10-19T01:07:57;17.97;;;13.80;;
12788;SDS011;6458;42.710;23.192;2023-10-19T01:10:29;24.17;;;15.00;;
12788;SDS011;6458;42.710;23.192;2023-10-19T01:12:57;24.37;;;15.80;;
12788;SDS011;6458;42.710;23.192;2023-10-19T01:15:25;23.90;;;15.47;;
12788;SDS011;6458;42.710;23.192;2023-10-19T01:17:56;19.63;;;14.57;;
12788;SDS011;6458;42.710;23.192;2023-10-19T01:20:23;22.83;;;15.00;;
12788;SDS011;6458;42.710;23.192;2023-10-19T01:23:14;21.37;;;15.47;;
12788;SDS011;6458;42.710;23.192;2023-10-19T01:25:51;18.60;;;14.10;;
12788;SDS011;6458;42.710;23.192;2023-10-19T01:28:26;25.20;;;15.73;;
12788;SDS011;6458;42.710;23.192;2023-10-19T01:31:07;22.37;;;15.37;;
12788;SDS011;6458;42.710;23.192;2023-10-19T01:33:33;21.60;;;15.80;;
12788;SDS011;6458;42.710;23.192;2023-10-19T01:36:00;23.17;;;15.73;;
12788;SDS011;6458;42.710;23.192;2023-10-19T01:38:51;25.60;;;16.83;;
12788;SDS011;6458;42.710;23.192;2023-10-19T01:41:23;21.40;;;15.43;;
12788;SDS011;6458;42.710;23.192;2023-10-19T01:43:50;20.80;;;15.00;;
12788;SDS011;6458;42.710;23.192;2023-10-19T01:46:18;20.83;;;16.00;;
12788;SDS011;6458;42.710;23.192;2023-10-19T01:48:49;21.97;;;16.17;;
12788;SDS011;6458;42.710;23.192;2023-10-19T01:51:19;24.60;;;15.83;;
12788;SDS011;6458;42.710;23.192;2023-10-19T01:53:46;19.80;;;14.83;;
12788;SDS011;6458;42.710;23.192;2023-10-19T01:56:14;24.10;;;14.63;;
12788;SDS011;6458;42.710;23.192;2023-10-19T02:01:43;25.83;;;16.03;;
12788;SDS011;6458;42.710;23.192;2023-10-19T02:04:11;21.73;;;14.97;;
12788;SDS011;6458;42.710;23.192;2023-10-19T02:06:38;23.30;;;15.53;;
12788;SDS011;6458;42.710;23.192;2023-10-19T02:09:06;19.10;;;14.03;;
12788;SDS011;6458;42.710;23.192;2023-10-19T02:11:40;21.00;;;14.83;;
12788;SDS011;6458;42.710;23.192;2023-10-19T02:14:12;20.97;;;13.70;;
12788;SDS011;6458;42.710;23.192;2023-10-19T02:16:40;20.63;;;13.70;;
12788;SDS011;6458;42.710;23.192;2023-10-19T02:19:06;22.73;;;15.80;;
12788;SDS011;6458;42.710;23.192;2023-10-19T02:21:33;18.00;;;13.77;;
12788;SDS011;6458;42.710;23.192;2023-10-19T02:24:03;19.57;;;13.57;;
12788;SDS011;6458;42.710;23.192;2023-10-19T02:26:32;22.47;;;14.70;;
12788;SDS011;6458;42.710;23.192;2023-10-19T02:29:00;19.07;;;14.33;;
12788;SDS011;6458;42.710;23.192;2023-10-19T02:31:39;18.20;;;13.80;;
12788;SDS011;6458;42.710;23.192;2023-10-19T02:34:05;19.20;;;13.43;;
12788;SDS011;6458;42.710;23.192;2023-10-19T02:36:32;21.30;;;14.80;;
12788;SDS011;6458;42.710;23.192;2023-10-19T02:39:00;20.90;;;15.50;;
12788;SDS011;6458;42.710;23.192;2023-10-19T02:41:25;21.80;;;14.10;;
12788;SDS011;6458;42.710;23.192;2023-10-19T02:43:53;21.00;;;13.93;;
12788;SDS011;6458;42.710;23.192;2023-10-19T02:46:28;19.47;;;14.17;;
12788;SDS011;6458;42.710;23.192;2023-10-19T02:48:59;19.50;;;14.47;;
12788;SDS011;6458;42.710;23.192;2023-10-19T02:51:28;19.03;;;13.73;;
12788;SDS011;6458;42.710;23.192;2023-10-19T02:53:54;18.17;;;13.43;;
12788;SDS011;6458;42.710;23.192;2023-10-19T02:56:20;18.90;;;13.60;;
12788;SDS011;6458;42.710;23.192;2023-10-19T02:58:50;20.50;;;14.87;;
12788;SDS011;6458;42.710;23.192;2023-10-19T03:01:16;19.97;;;14.27;;
12788;SDS011;6458;42.710;23.192;2023-10-19T03:03:50;16.43;;;12.73;;
12788;SDS011;6458;42.710;23.192;2023-10-19T03:06:19;24.37;;;19.83;;
12788;SDS011;6458;42.710;23.192;2023-10-19T03:08:46;23.30;;;15.73;;
12788;SDS011;6458;42.710;23.192;2023-10-19T03:11:13;21.83;;;14.63;;
12788;SDS011;6458;42.710;23.192;2023-10-19T03:13:39;19.13;;;13.47;;
12788;SDS011;6458;42.710;23.192;2023-10-19T03:16:06;20.67;;;14.90;;
12788;SDS011;6458;42.710;23.192;2023-10-19T03:18:34;19.93;;;14.30;;
12788;SDS011;6458;42.710;23.192;2023-10-19T03:21:01;21.27;;;14.37;;
12788;SDS011;6458;42.710;23.192;2023-10-19T03:23:28;20.50;;;13.30;;
12788;SDS011;6458;42.710;23.192;2023-10-19T03:25:54;18.77;;;14.43;;
12788;SDS011;6458;42.710;23.192;2023-10-19T03:28:38;19.03;;;13.47;;
12788;SDS011;6458;42.710;23.192;2023-10-19T03:31:06;18.67;;;14.37;;
12788;SDS011;6458;42.710;23.192;2023-10-19T03:33:32;21.93;;;14.97;;
12788;SDS011;6458;42.710;23.192;2023-10-19T03:36:02;20.50;;;15.30;;
12788;SDS011;6458;42.710;23.192;2023-10-19T03:38:31;23.63;;;15.63;;
12788;SDS011;6458;42.710;23.192;2023-10-19T03:40:59;20.63;;;14.13;;
12788;SDS011;6458;42.710;23.192;2023-10-19T03:43:32;21.67;;;14.60;;
12788;SDS011;6458;42.710;23.192;2023-10-19T03:46:01;21.07;;;14.57;;
12788;SDS011;6458;42.710;23.192;2023-10-19T03:48:31;21.33;;;14.30;;
12788;SDS011;6458;42.710;23.192;2023-10-19T03:51:04;23.00;;;14.53;;
12788;SDS011;6458;42.710;23.192;2023-10-19T03:53:32;22.80;;;15.83;;
12788;SDS011;6458;42.710;23.192;2023-10-19T03:56:03;23.80;;;15.60;;
12788;SDS011;6458;42.710;23.192;2023-10-19T04:01:38;18.87;;;14.87;;
12788;SDS011;6458;42.710;23.192;2023-10-19T04:04:05;24.07;;;15.70;;
12788;SDS011;6458;42.710;23.192;2023-10-19T04:06:35;21.33;;;14.83;;
12788;SDS011;6458;42.710;23.192;2023-10-19T04:09:04;20.10;;;14.70;;
12788;SDS011;6458;42.710;23.192;2023-10-19T04:11:31;20.70;;;14.50;;
12788;SDS011;6458;42.710;23.192;2023-10-19T04:14:12;22.77;;;15.73;;
12788;SDS011;6458;42.710;23.192;2023-10-19T04:16:40;19.87;;;14.50;;
12788;SDS011;6458;42.710;23.192;2023-10-19T04:19:08;26.97;;;21.73;;
12788;SDS011;6458;42.710;23.192;2023-10-19T04:21:36;28.00;;;22.77;;
12788;SDS011;6458;42.710;23.192;2023-10-19T04:27:07;27.40;;;21.73;;
12788;SDS011;6458;42.710;23.192;2023-10-19T04:29:35;26.13;;;21.83;;
12788;SDS011;6458;42.710;23.192;2023-10-19T04:32:04;27.20;;;22.47;;
12788;SDS011;6458;42.710;23.192;2023-10-19T04:34:32;29.40;;;22.27;;
12788;SDS011;6458;42.710;23.192;2023-10-19T04:37:00;28.53;;;23.73;;
12788;SDS011;6458;42.710;23.192;2023-10-19T04:39:28;33.20;;;25.50;;
12788;SDS011;6458;42.710;23.192;2023-10-19T04:41:55;29.30;;;22.50;;
12788;SDS011;6458;42.710;23.192;2023-10-19T04:44:22;27.23;;;21.93;;
12788;SDS011;6458;42.710;23.192;2023-10-19T04:46:49;28.17;;;21.87;;
12788;SDS011;6458;42.710;23.192;2023-10-19T04:49:15;28.37;;;22.87;;
12788;SDS011;6458;42.710;23.192;2023-10-19T04:51:42;26.60;;;22.57;;
12788;SDS011;6458;42.710;23.192;2023-10-19T04:54:10;31.27;;;24.83;;
12788;SDS011;6458;42.710;23.192;2023-10-19T04:56:39;33.43;;;25.10;;
12788;SDS011;6458;42.710;23.192;2023-10-19T04:59:06;36.97;;;27.00;;
12788;SDS011;6458;42.710;23.192;2023-10-19T05:01:32;31.60;;;23.17;;
12788;SDS011;6458;42.710;23.192;2023-10-19T05:04:00;31.60;;;22.97;;
12788;SDS011;6458;42.710;23.192;2023-10-19T05:06:26;28.57;;;23.33;;
12788;SDS011;6458;42.710;23.192;2023-10-19T05:08:54;29.00;;;23.87;;
12788;SDS011;6458;42.710;23.192;2023-10-19T05:11:23;30.17;;;23.50;;
12788;SDS011;6458;42.710;23.192;2023-10-19T05:16:55;30.53;;;23.20;;
12788;SDS011;6458;42.710;23.192;2023-10-19T05:19:23;55.00;;;26.07;;
12788;SDS011;6458;42.710;23.192;2023-10-19T05:21:49;42.93;;;24.30;;
12788;SDS011;6458;42.710;23.192;2023-10-19T05:24:17;327.47;;;34.40;;
12788;SDS011;6458;42.710;23.192;2023-10-19T05:29:49;166.33;;;28.83;;
12788;SDS011;6458;42.710;23.192;2023-10-19T05:32:16;79.40;;;17.93;;
12788;SDS011;6458;42.710;23.192;2023-10-19T05:34:43;76.27;;;18.87;;
12788;SDS011;6458;42.710;23.192;2023-10-19T05:37:10;64.27;;;16.97;;
12788;SDS011;6458;42.710;23.192;2023-10-19T05:39:37;86.27;;;16.40;;
12788;SDS011;6458;42.710;23.192;2023-10-19T05:42:04;66.70;;;16.40;;
12788;SDS011;6458;42.710;23.192;2023-10-19T05:44:31;46.20;;;15.93;;
12788;SDS011;6458;42.710;23.192;2023-10-19T05:46:59;46.60;;;17.07;;
12788;SDS011;6458;42.710;23.192;2023-10-19T05:49:26;63.47;;;16.97;;
12788;SDS011;6458;42.710;23.192;2023-10-19T05:51:53;65.63;;;18.87;;
12788;SDS011;6458;42.710;23.192;2023-10-19T05:54:20;20.33;;;10.73;;
12788;SDS011;6458;42.710;23.192;2023-10-19T05:56:49;48.13;;;15.20;;
12788;SDS011;6458;42.710;23.192;2023-10-19T05:59:15;80.67;;;17.67;;
12788;SDS011;6458;42.710;23.192;2023-10-19T06:01:42;76.87;;;17.10;;
12788;SDS011;6458;42.710;23.192;2023-10-19T06:04:13;39.07;;;14.13;;
12788;SDS011;6458;42.710;23.192;2023-10-19T06:06:39;66.83;;;16.10;;
12788;SDS011;6458;42.710;23.192;2023-10-19T06:09:07;39.83;;;15.33;;
12788;SDS011;6458;42.710;23.192;2023-10-19T06:11:34;49.77;;;16.27;;
12788;SDS011;6458;42.710;23.192;2023-10-19T06:14:03;28.80;;;14.23;;
12788;SDS011;6458;42.710;23.192;2023-10-19T06:16:32;36.80;;;14.60;;
12788;SDS011;6458;42.710;23.192;2023-10-19T06:18:58;19.47;;;13.73;;
12788;SDS011;6458;42.710;23.192;2023-10-19T06:21:26;32.40;;;13.30;;
12788;SDS011;6458;42.710;23.192;2023-10-19T06:23:53;23.53;;;14.77;;
12788;SDS011;6458;42.710;23.192;2023-10-19T06:26:20;21.10;;;14.63;;
12788;SDS011;6458;42.710;23.192;2023-10-19T06:28:47;22.97;;;14.53;;
12788;SDS011;6458;42.710;23.192;2023-10-19T06:31:15;20.43;;;14.37;;
12788;SDS011;6458;42.710;23.192;2023-10-19T06:33:42;33.87;;;15.40;;
12788;SDS011;6458;42.710;23.192;2023-10-19T06:36:09;32.53;;;18.73;;
12788;SDS011;6458;42.710;23.192;2023-10-19T06:38:37;27.87;;;16.23;;
12788;SDS011;6458;42.710;23.192;2023-10-19T06:41:09;22.57;;;14.93;;
12788;SDS011;6458;42.710;23.192;2023-10-19T06:43:36;43.80;;;29.40;;
12788;SDS011;6458;42.710;23.192;2023-10-19T06:46:03;32.90;;;18.77;;
12788;SDS011;6458;42.710;23.192;2023-10-19T06:48:30;29.10;;;17.23;;
12788;SDS011;6458;42.710;23.192;2023-10-19T06:50:57;31.43;;;17.20;;
12788;SDS011;6458;42.710;23.192;2023-10-19T06:53:25;26.10;;;16.23;;
12788;SDS011;6458;42.710;23.192;2023-10-19T06:55:53;24.70;;;15.17;;
12788;SDS011;6458;42.710;23.192;2023-10-19T06:58:20;22.90;;;15.33;;
12788;SDS011;6458;42.710;23.192;2023-10-19T07:00:51;29.20;;;15.33;;
12788;SDS011;6458;42.710;23.192;2023-10-19T07:03:24;22.83;;;15.40;;
12788;SDS011;6458;42.710;23.192;2023-10-19T07:05:53;22.87;;;13.97;;
12788;SDS011;6458;42.710;23.192;2023-10-19T07:08:19;21.17;;;13.93;;
12788;SDS011;6458;42.710;23.192;2023-10-19T07:10:46;22.70;;;14.30;;
12788;SDS011;6458;42.710;23.192;2023-10-19T07:13:16;26.07;;;15.90;;
12788;SDS011;6458;42.710;23.192;2023-10-19T07:15:44;23.20;;;15.37;;
12788;SDS011;6458;42.710;23.192;2023-10-19T07:18:11;22.87;;;15.80;;
12788;SDS011;6458;42.710;23.192;2023-10-19T07:20:38;19.60;;;13.53;;
12788;SDS011;6458;42.710;23.192;2023-10-19T07:23:07;25.37;;;15.97;;
12788;SDS011;6458;42.710;23.192;2023-10-19T07:25:43;26.23;;;14.90;;
12788;SDS011;6458;42.710;23.192;2023-10-19T07:28:10;24.93;;;16.30;;
12788;SDS011;6458;42.710;23.192;2023-10-19T07:30:41;19.70;;;13.73;;
12788;SDS011;6458;42.710;23.192;2023-10-19T07:33:07;23.20;;;15.67;;
12788;SDS011;6458;42.710;23.192;2023-10-19T07:35:35;20.63;;;13.50;;
12788;SDS011;6458;42.710;23.192;2023-10-19T07:38:03;19.27;;;13.23;;
12788;SDS011;6458;42.710;23.192;2023-10-19T07:40:32;20.17;;;13.50;;
12788;SDS011;6458;42.710;23.192;2023-10-19T07:42:59;22.27;;;14.67;;
12788;SDS011;6458;42.710;23.192;2023-10-19T07:45:27;19.57;;;14.20;;
12788;SDS011;6458;42.710;23.192;2023-10-19T07:47:55;22.33;;;15.73;;
12788;SDS011;6458;42.710;23.192;2023-10-19T07:50:22;22.57;;;15.57;;
12788;SDS011;6458;42.710;23.192;2023-10-19T07:52:49;23.30;;;15.70;;
12788;SDS011;6458;42.710;23.192;2023-10-19T07:55:16;21.60;;;16.10;;
12788;SDS011;6458;42.710;23.192;2023-10-19T07:57:43;21.50;;;15.40;;
12788;SDS011;6458;42.710;23.192;2023-10-19T08:00:10;24.50;;;17.83;;
12788;SDS011;6458;42.710;23.192;2023-10-19T08:02:39;22.50;;;16.97;;
12788;SDS011;6458;42.710;23.192;2023-10-19T08:05:08;21.43;;;15.47;;
12788;SDS011;6458;42.710;23.192;2023-10-19T08:07:36;19.27;;;16.23;;
12788;SDS011;6458;42.710;23.192;2023-10-19T08:10:05;21.00;;;15.10;;
12788;SDS011;6458;42.710;23.192;2023-10-19T08:12:34;22.00;;;16.23;;
12788;SDS011;6458;42.710;23.192;2023-10-19T08:15:01;17.07;;;14.63;;
12788;SDS011;6458;42.710;23.192;2023-10-19T08:17:29;17.40;;;14.83;;
12788;SDS011;6458;42.710;23.192;2023-10-19T08:19:55;19.50;;;15.37;;
12788;SDS011;6458;42.710;23.192;2023-10-19T08:22:23;15.93;;;13.83;;
12788;SDS011;6458;42.710;23.192;2023-10-19T08:24:52;15.67;;;13.17;;
12788;SDS011;6458;42.710;23.192;2023-10-19T08:27:19;16.90;;;13.00;;
12788;SDS011;6458;42.710;23.192;2023-10-19T08:29:46;16.77;;;12.70;;
12788;SDS011;6458;42.710;23.192;2023-10-19T08:32:13;17.77;;;14.07;;
12788;SDS011;6458;42.710;23.192;2023-10-19T08:34:41;17.67;;;13.20;;
12788;SDS011;6458;42.710;23.192;2023-10-19T08:37:08;19.73;;;14.23;;
12788;SDS011;6458;42.710;23.192;2023-10-19T08:39:37;17.63;;;14.73;;
12788;SDS011;6458;42.710;23.192;2023-10-19T08:42:04;20.03;;;15.30;;
12788;SDS011;6458;42.710;23.192;2023-10-19T08:44:30;21.80;;;17.33;;
12788;SDS011;6458;42.710;23.192;2023-10-19T08:46:58;21.17;;;15.70;;
12788;SDS011;6458;42.710;23.192;2023-10-19T08:49:25;19.97;;;14.10;;
12788;SDS011;6458;42.710;23.192;2023-10-19T08:51:53;19.70;;;15.50;;
12788;SDS011;6458;42.710;23.192;2023-10-19T08:54:20;21.47;;;16.80;;
12788;SDS011;6458;42.710;23.192;2023-10-19T08:56:48;24.40;;;16.27;;
12788;SDS011;6458;42.710;23.192;2023-10-19T08:59:14;22.63;;;17.47;;
12788;SDS011;6458;42.710;23.192;2023-10-19T09:01:42;21.67;;;16.17;;
12788;SDS011;6458;42.710;23.192;2023-10-19T09:04:09;24.10;;;17.77;;
12788;SDS011;6458;42.710;23.192;2023-10-19T09:06:36;21.70;;;16.90;;
12788;SDS011;6458;42.710;23.192;2023-10-19T09:09:07;24.37;;;18.47;;
12788;SDS011;6458;42.710;23.192;2023-10-19T09:11:38;25.77;;;18.43;;
12788;SDS011;6458;42.710;23.192;2023-10-19T09:14:07;24.67;;;18.00;;
12788;SDS011;6458;42.710;23.192;2023-10-19T09:16:33;26.40;;;20.47;;
12788;SDS011;6458;42.710;23.192;2023-10-19T09:19:02;23.93;;;18.83;;
12788;SDS011;6458;42.710;23.192;2023-10-19T09:21:29;30.53;;;20.37;;
12788;SDS011;6458;42.710;23.192;2023-10-19T09:23:58;30.10;;;20.23;;
12788;SDS011;6458;42.710;23.192;2023-10-19T09:26:24;27.43;;;20.57;;
12788;SDS011;6458;42.710;23.192;2023-10-19T09:28:52;26.93;;;19.40;;
12788;SDS011;6458;42.710;23.192;2023-10-19T09:31:20;21.57;;;17.97;;
12788;SDS011;6458;42.710;23.192;2023-10-19T09:33:49;19.57;;;16.40;;
12788;SDS011;6458;42.710;23.192;2023-10-19T09:36:18;22.20;;;17.13;;
12788;SDS011;6458;42.710;23.192;2023-10-19T09:38:47;19.87;;;15.00;;
12788;SDS011;6458;42.710;23.192;2023-10-19T09:41:16;17.70;;;14.90;;
12788;SDS011;6458;42.710;23.192;2023-10-19T09:43:44;16.80;;;14.27;;
12788;SDS011;6458;42.710;23.192;2023-10-19T09:46:11;17.93;;;14.00;;
12788;SDS011;6458;42.710;23.192;2023-10-19T09:48:40;16.10;;;14.00;;
12788;SDS011;6458;42.710;23.192;2023-10-19T09:51:08;16.20;;;13.40;;
12788;SDS011;6458;42.710;23.192;2023-10-19T09:53:35;15.07;;;12.03;;
12788;SDS011;6458;42.710;23.192;2023-10-19T09:56:03;16.00;;;12.60;;
12788;SDS011;6458;42.710;23.192;2023-10-19T09:58:33;19.27;;;14.53;;
12788;SDS011;6458;42.710;23.192;2023-10-19T10:01:02;20.20;;;16.83;;
12788;SDS011;6458;42.710;23.192;2023-10-19T10:03:48;17.20;;;14.77;;
12788;SDS011;6458;42.710;23.192;2023-10-19T10:06:16;16.57;;;13.77;;
12788;SDS011;6458;42.710;23.192;2023-10-19T10:08:45;14.63;;;13.07;;
12788;SDS011;6458;42.710;23.192;2023-10-19T10:11:19;14.87;;;13.10;;
12788;SDS011;6458;42.710;23.192;2023-10-19T10:13:46;13.57;;;12.07;;
12788;SDS011;6458;42.710;23.192;2023-10-19T10:16:16;14.37;;;12.17;;
12788;SDS011;6458;42.710;23.192;2023-10-19T10:18:43;15.60;;;12.23;;
12788;SDS011;6458;42.710;23.192;2023-10-19T10:21:15;14.60;;;12.00;;
12788;SDS011;6458;42.710;23.192;2023-10-19T10:23:42;12.77;;;11.33;;
12788;SDS011;6458;42.710;23.192;2023-10-19T10:26:10;14.83;;;12.37;;
12788;SDS011;6458;42.710;23.192;2023-10-19T10:28:36;12.73;;;10.67;;
12788;SDS011;6458;42.710;23.192;2023-10-19T10:31:10;14.43;;;11.20;;
12788;SDS011;6458;42.710;23.192;2023-10-19T10:33:39;14.30;;;11.27;;
12788;SDS011;6458;42.710;23.192;2023-10-19T10:36:06;13.57;;;10.73;;
12788;SDS011;6458;42.710;23.192;2023-10-19T10:38:34;15.60;;;12.07;;
12788;SDS011;6458;42.710;23.192;2023-10-19T10:41:01;12.97;;;11.53;;
12788;SDS011;6458;42.710;23.192;2023-10-19T10:43:28;12.40;;;11.00;;
12788;SDS011;6458;42.710;23.192;2023-10-19T10:46:02;12.70;;;10.97;;
12788;SDS011;6458;42.710;23.192;2023-10-19T10:48:29;11.80;;;10.20;;
12788;SDS011;6458;42.710;23.192;2023-10-19T10:50:55;12.03;;;10.80;;
12788;SDS011;6458;42.710;23.192;2023-10-19T10:53:23;10.53;;;9.50;;
12788;SDS011;6458;42.710;23.192;2023-10-19T10:55:53;11.80;;;8.37;;
12788;SDS011;6458;42.710;23.192;2023-10-19T10:58:20;9.30;;;8.20;;
12788;SDS011;6458;42.710;23.192;2023-10-19T11:00:47;10.00;;;9.00;;
12788;SDS011;6458;42.710;23.192;2023-10-19T11:03:16;11.77;;;9.53;;
12788;SDS011;6458;42.710;23.192;2023-10-19T11:05:43;9.67;;;8.67;;
12788;SDS011;6458;42.710;23.192;2023-10-19T11:08:11;11.83;;;9.43;;
12788;SDS011;6458;42.710;23.192;2023-10-19T11:10:40;10.73;;;9.30;;
12788;SDS011;6458;42.710;23.192;2023-10-19T11:13:09;10.60;;;9.30;;
12788;SDS011;6458;42.710;23.192;2023-10-19T11:15:36;9.23;;;8.20;;
12788;SDS011;6458;42.710;23.192;2023-10-19T11:18:06;8.87;;;7.97;;
12788;SDS011;6458;42.710;23.192;2023-10-19T11:20:33;8.80;;;7.90;;
12788;SDS011;6458;42.710;23.192;2023-10-19T11:23:00;8.30;;;7.50;;
12788;SDS011;6458;42.710;23.192;2023-10-19T11:25:28;8.73;;;7.83;;
12788;SDS011;6458;42.710;23.192;2023-10-19T11:27:55;9.03;;;8.13;;
12788;SDS011;6458;42.710;23.192;2023-10-19T11:30:26;10.67;;;7.43;;
12788;SDS011;6458;42.710;23.192;2023-10-19T11:32:53;9.20;;;7.93;;
12788;SDS011;6458;42.710;23.192;2023-10-19T11:35:22;9.07;;;8.20;;
12788;SDS011;6458;42.710;23.192;2023-10-19T11:37:49;12.10;;;8.50;;
12788;SDS011;6458;42.710;23.192;2023-10-19T11:40:17;10.07;;;7.33;;
12788;SDS011;6458;42.710;23.192;2023-10-19T11:42:44;8.63;;;7.73;;
12788;SDS011;6458;42.710;23.192;2023-10-19T11:45:12;8.57;;;7.43;;
12788;SDS011;6458;42.710;23.192;2023-10-19T11:47:40;12.37;;;8.03;;
12788;SDS011;6458;42.710;23.192;2023-10-19T11:50:07;6.73;;;6.13;;
12788;SDS011;6458;42.710;23.192;2023-10-19T11:52:33;7.73;;;6.10;;
12788;SDS011;6458;42.710;23.192;2023-10-19T11:55:00;7.10;;;6.50;;
12788;SDS011;6458;42.710;23.192;2023-10-19T11:57:27;10.73;;;8.30;;
12788;SDS011;6458;42.710;23.192;2023-10-19T11:59:54;8.40;;;7.50;;
12788;SDS011;6458;42.710;23.192;2023-10-19T12:02:22;8.17;;;7.40;;
12788;SDS011;6458;42.710;23.192;2023-10-19T12:04:51;13.23;;;7.43;;
12788;SDS011;6458;42.710;23.192;2023-10-19T12:07:18;8.60;;;7.80;;
12788;SDS011;6458;42.710;23.192;2023-10-19T12:09:44;7.13;;;6.53;;
12788;SDS011;6458;42.710;23.192;2023-10-19T12:12:11;9.33;;;7.67;;
12788;SDS011;6458;42.710;23.192;2023-10-19T12:14:38;7.93;;;7.07;;
12788;SDS011;6458;42.710;23.192;2023-10-19T12:17:05;8.80;;;7.90;;
12788;SDS011;6458;42.710;23.192;2023-10-19T12:19:32;6.53;;;6.00;;
12788;SDS011;6458;42.710;23.192;2023-10-19T12:22:01;9.17;;;5.40;;
12788;SDS011;6458;42.710;23.192;2023-10-19T12:24:28;3.67;;;3.40;;
12788;SDS011;6458;42.710;23.192;2023-10-19T12:26:55;3.10;;;2.90;;
12788;SDS011;6458;42.710;23.192;2023-10-19T12:29:22;2.20;;;2.10;;
12788;SDS011;6458;42.710;23.192;2023-10-19T12:31:50;2.30;;;2.20;;
12788;SDS011;6458;42.710;23.192;2023-10-19T12:34:17;2.60;;;2.40;;
12788;SDS011;6458;42.710;23.192;2023-10-19T12:36:45;3.90;;;2.93;;
12788;SDS011;6458;42.710;23.192;2023-10-19T12:39:16;2.80;;;2.70;;
12788;SDS011;6458;42.710;23.192;2023-10-19T12:42:00;2.97;;;2.63;;
12788;SDS011;6458;42.710;23.192;2023-10-19T12:44:28;3.43;;;3.10;;
12788;SDS011;6458;42.710;23.192;2023-10-19T12:47:04;3.20;;;3.00;;
12788;SDS011;6458;42.710;23.192;2023-10-19T12:49:34;2.70;;;2.60;;
12788;SDS011;6458;42.710;23.192;2023-10-19T12:52:01;3.33;;;2.47;;
12788;SDS011;6458;42.710;23.192;2023-10-19T12:54:33;2.27;;;2.17;;
12788;SDS011;6458;42.710;23.192;2023-10-19T12:57:00;2.93;;;2.73;;
12788;SDS011;6458;42.710;23.192;2023-10-19T12:59:29;3.10;;;2.80;;
12788;SDS011;6458;42.710;23.192;2023-10-19T13:01:55;3.53;;;3.27;;
12788;SDS011;6458;42.710;23.192;2023-10-19T13:04:23;2.43;;;2.20;;
12788;SDS011;6458;42.710;23.192;2023-10-19T13:06:50;2.50;;;2.40;;
12788;SDS011;6458;42.710;23.192;2023-10-19T13:09:16;3.67;;;3.20;;
12788;SDS011;6458;42.710;23.192;2023-10-19T13:11:48;2.30;;;2.20;;
12788;SDS011;6458;42.710;23.192;2023-10-19T13:14:17;3.53;;;2.63;;
12788;SDS011;6458;42.710;23.192;2023-10-19T13:16:43;2.53;;;2.40;;
12788;SDS011;6458;42.710;23.192;2023-10-19T13:19:10;2.80;;;2.13;;
12788;SDS011;6458;42.710;23.192;2023-10-19T13:21:38;3.13;;;2.93;;
12788;SDS011;6458;42.710;23.192;2023-10-19T13:24:07;3.50;;;2.33;;
12788;SDS011;6458;42.710;23.192;2023-10-19T13:26:34;5.43;;;2.83;;
12788;SDS011;6458;42.710;23.192;2023-10-19T13:29:02;3.83;;;3.50;;
12788;SDS011;6458;42.710;23.192;2023-10-19T13:31:29;2.37;;;2.00;;
12788;SDS011;6458;42.710;23.192;2023-10-19T13:33:57;2.93;;;2.37;;
12788;SDS011;6458;42.710;23.192;2023-10-19T13:36:24;2.10;;;2.00;;
12788;SDS011;6458;42.710;23.192;2023-10-19T13:38:51;2.50;;;2.17;;
12788;SDS011;6458;42.710;23.192;2023-10-19T13:41:19;4.23;;;2.83;;
12788;SDS011;6458;42.710;23.192;2023-10-19T13:43:45;3.47;;;3.23;;
12788;SDS011;6458;42.710;23.192;2023-10-19T13:46:14;4.03;;;3.80;;
12788;SDS011;6458;42.710;23.192;2023-10-19T13:48:40;3.13;;;2.93;;
12788;SDS011;6458;42.710;23.192;2023-10-19T13:51:07;4.93;;;4.53;;
12788;SDS011;6458;42.710;23.192;2023-10-19T13:53:38;6.40;;;5.80;;
12788;SDS011;6458;42.710;23.192;2023-10-19T13:56:07;5.77;;;5.27;;
12788;SDS011;6458;42.710;23.192;2023-10-19T13:58:34;8.57;;;5.73;;
12788;SDS011;6458;42.710;23.192;2023-10-19T14:01:00;6.43;;;5.83;;
12788;SDS011;6458;42.710;23.192;2023-10-19T14:03:29;6.47;;;5.83;;
12788;SDS011;6458;42.710;23.192;2023-10-19T14:05:56;6.10;;;5.60;;
12788;SDS011;6458;42.710;23.192;2023-10-19T14:08:23;5.90;;;5.50;;
12788;SDS011;6458;42.710;23.192;2023-10-19T14:10:49;6.87;;;6.27;;
12788;SDS011;6458;42.710;23.192;2023-10-19T14:13:16;8.40;;;6.30;;
12788;SDS011;6458;42.710;23.192;2023-10-19T14:15:42;6.13;;;5.63;;
12788;SDS011;6458;42.710;23.192;2023-10-19T14:18:09;7.20;;;6.47;;
12788;SDS011;6458;42.710;23.192;2023-10-19T14:20:40;7.73;;;4.90;;
12788;SDS011;6458;42.710;23.192;2023-10-19T14:23:06;6.87;;;6.10;;
12788;SDS011;6458;42.710;23.192;2023-10-19T14:25:36;6.77;;;6.03;;
12788;SDS011;6458;42.710;23.192;2023-10-19T14:28:02;5.90;;;4.73;;
12788;SDS011;6458;42.710;23.192;2023-10-19T14:30:31;5.83;;;4.30;;
12788;SDS011;6458;42.710;23.192;2023-10-19T14:32:58;4.83;;;3.60;;
12788;SDS011;6458;42.710;23.192;2023-10-19T14:35:25;3.87;;;3.57;;
12788;SDS011;6458;42.710;23.192;2023-10-19T14:37:54;3.13;;;2.90;;
12788;SDS011;6458;42.710;23.192;2023-10-19T14:40:22;5.10;;;3.10;;
12788;SDS011;6458;42.710;23.192;2023-10-19T14:42:50;2.77;;;2.67;;
12788;SDS011;6458;42.710;23.192;2023-10-19T14:45:19;3.57;;;3.30;;
12788;SDS011;6458;42.710;23.192;2023-10-19T14:47:46;3.33;;;3.03;;
12788;SDS011;6458;42.710;23.192;2023-10-19T14:50:13;3.43;;;3.20;;